CYVM/YVM METAR and TAF weather

Enter ICAO airport designator
Station Type Date Time Source
CYVM METAR 2019/04/26 03:00 UTC NOAA

CYVM 260300Z AUTO 21012KT 9SM OVC120 M16/M20 A2980 RMK SLP095


Station Type Date Time Source
CYVM Decoded METAR 2019/04/26 03:00 UTC NOAA

Broughton Island Airport, Canada (CYVM) 67-33N 064-02W
Apr 25, 2019 - 11:00 PM EDT / 2019.04.26 0300 UTC
Wind: from the SSW (210 degrees) at 14 MPH (12 KT):0
Visibility: 9 mile(s):0
Sky conditions: overcast
Temperature: 3 F (-16 C)
Windchill: -14 F (-26 C):2
Dew Point: -4 F (-20 C)
Relative Humidity: 71%
Pressure (altimeter): 29.8 in. Hg (1009 hPa)
ob: CYVM 260300Z AUTO 21012KT 9SM OVC120 M16/M20 A2980 RMK SLP095
cycle: 3

Station Type Date Time Source
CYVM TAF 2019/04/26 01:39 UTC NOAA

TAF CYVM 260038Z 2601/2613 20010KT P6SM BKN130
BECMG 2607/2609 16008KT
RMK FCST BASED ON AUTO OBS. NXT FCST BY 260700Z

Example: see airport list